createdAt,value
2024-03-02T00:01:46.992Z,99187.72
2024-03-02T00:04:14.820Z,99181.78
2024-03-02T00:06:42.686Z,99180.09
2024-03-02T00:09:13.482Z,99181.78
2024-03-02T00:11:41.589Z,99182.63
2024-03-02T00:14:10.837Z,99185.16
2024-03-02T00:16:39.157Z,99190.28
2024-03-02T00:19:09.201Z,99191.09
2024-03-02T00:21:37.328Z,99201.34
2024-03-02T00:24:19.782Z,99199.56
2024-03-02T00:26:47.718Z,99204.69
2024-03-02T00:29:19.309Z,99213.22
2024-03-02T00:31:47.348Z,99214.00
2024-03-02T00:34:17.396Z,99208.88
2024-03-02T00:36:46.603Z,99210.59
2024-03-02T00:39:17.220Z,99214.81
2024-03-02T00:41:45.393Z,99211.44
2024-03-02T00:44:14.998Z,99220.78
2024-03-02T00:46:45.711Z,99222.44
2024-03-02T00:49:25.559Z,99229.34
2024-03-02T00:51:55.020Z,99213.16
2024-03-02T00:54:25.549Z,99204.69
2024-03-02T00:56:56.184Z,99196.22
2024-03-02T00:59:25.284Z,99180.94
2024-03-02T01:01:55.138Z,99167.41
2024-03-02T01:04:23.066Z,99159.81
2024-03-02T01:06:50.965Z,99136.03
2024-03-02T01:09:19.085Z,99124.28
2024-03-02T01:11:47.521Z,99106.50
2024-03-02T01:14:15.442Z,99083.63
2024-03-02T01:16:43.401Z,99065.88
2024-03-02T01:19:12.815Z,99033.63
2024-03-02T01:21:40.770Z,99021.75
2024-03-02T01:24:08.628Z,99009.09
2024-03-02T01:26:36.416Z,98989.66
2024-03-02T01:29:04.264Z,98982.94
2024-03-02T01:31:32.065Z,98967.69
2024-03-02T01:33:59.928Z,98948.28
2024-03-02T01:36:29.221Z,98932.19
2024-03-02T01:38:57.043Z,98908.44
2024-03-02T01:41:24.918Z,98902.59
2024-03-02T01:43:52.726Z,98892.44
2024-03-02T01:46:20.596Z,98875.50
2024-03-02T01:48:49.035Z,98861.97
2024-03-02T01:51:16.975Z,98851.84
2024-03-02T01:53:46.168Z,98848.53
2024-03-02T01:56:13.999Z,98841.75
2024-03-02T01:58:41.804Z,98837.47
2024-03-02T02:01:11.257Z,98836.66
2024-03-02T02:03:39.496Z,98829.88
2024-03-02T02:06:08.212Z,98831.66
2024-03-02T02:08:36.038Z,98819.75
2024-03-02T02:11:05.604Z,98818.94
2024-03-02T02:13:33.535Z,98813.00
2024-03-02T02:16:07.050Z,98809.63
2024-03-02T02:18:35.084Z,98807.94
2024-03-02T02:21:02.920Z,98805.41
2024-03-02T02:23:32.084Z,98811.28
2024-03-02T02:25:59.936Z,98820.66
2024-03-02T02:28:27.817Z,98828.25
2024-03-02T02:30:58.061Z,98839.22
2024-03-02T02:33:26.065Z,98845.13
2024-03-02T02:35:54.130Z,98866.31
2024-03-02T02:38:22.061Z,98890.00
2024-03-02T02:40:51.232Z,98903.47
2024-03-02T02:43:19.111Z,98922.94
2024-03-02T02:45:47.093Z,98944.09
2024-03-02T02:48:15.022Z,98968.63
2024-03-02T02:50:43.867Z,98985.44
2024-03-02T02:53:11.677Z,99018.44
2024-03-02T02:55:41.867Z,99035.41
2024-03-02T02:58:11.104Z,99057.47
2024-03-02T03:00:38.994Z,99078.63
2024-03-02T03:03:06.881Z,99087.13
2024-03-02T03:05:33.744Z,99101.41
2024-03-02T03:08:01.536Z,99120.94
2024-03-02T03:10:29.442Z,99133.63
2024-03-02T03:12:57.901Z,99142.09
2024-03-02T03:15:27.545Z,99162.47
2024-03-02T03:17:55.612Z,99156.47
2024-03-02T03:20:24.640Z,99165.00
2024-03-02T03:22:52.508Z,99163.31
2024-03-02T03:25:20.330Z,99159.91
2024-03-02T03:27:48.161Z,99161.66
2024-03-02T03:30:16.772Z,99139.56
2024-03-02T03:32:46.211Z,99130.28
2024-03-02T03:35:15.769Z,99115.03
2024-03-02T03:37:43.617Z,99103.16
2024-03-02T03:40:12.456Z,99101.47
2024-03-02T03:42:41.068Z,99098.13
2024-03-02T03:45:09.815Z,99089.63
2024-03-02T03:47:37.726Z,99080.31
2024-03-02T03:50:08.500Z,99081.25
2024-03-02T03:52:36.744Z,99065.91
2024-03-02T03:55:06.611Z,99060.88
2024-03-02T03:57:34.743Z,99047.31
2024-03-02T04:00:02.586Z,99043.06
2024-03-02T04:02:39.980Z,99043.97
2024-03-02T04:05:12.157Z,99046.53
2024-03-02T04:07:41.428Z,99044.81
2024-03-02T04:10:10.658Z,99043.06
2024-03-02T04:12:39.070Z,99049.84
2024-03-02T04:15:07.985Z,99051.53
2024-03-02T04:17:37.137Z,99052.38
2024-03-02T04:20:06.709Z,99054.09
2024-03-02T04:22:36.923Z,99048.19
2024-03-02T04:25:06.453Z,99034.63
2024-03-02T04:27:34.730Z,99030.41
2024-03-02T04:30:02.834Z,99008.38
2024-03-02T04:32:30.964Z,98990.63
2024-03-02T04:34:58.873Z,98976.28
2024-03-02T04:37:26.695Z,98960.22
2024-03-02T04:39:56.052Z,98934.84
2024-03-02T04:42:24.025Z,98902.69
2024-03-02T04:44:51.893Z,98884.16
2024-03-02T04:47:19.707Z,98848.59
2024-03-02T04:49:47.645Z,98824.97
2024-03-02T04:52:15.527Z,98800.47
2024-03-02T04:54:57.368Z,98775.88
2024-03-02T04:57:26.595Z,98764.97
2024-03-02T04:59:54.470Z,98740.50
2024-03-02T05:02:22.300Z,98704.97
2024-03-02T05:04:50.139Z,98680.59
2024-03-02T05:07:18.098Z,98655.22
2024-03-02T05:09:45.938Z,98645.97
2024-03-02T05:12:41.639Z,98634.09
2024-03-02T05:15:11.854Z,98606.19
2024-03-02T05:17:39.924Z,98580.88
2024-03-02T05:20:09.686Z,98562.38
2024-03-02T05:22:37.735Z,98537.03
2024-03-02T05:25:06.788Z,98518.47
2024-03-02T05:27:34.931Z,98488.94
2024-03-02T05:30:03.165Z,98473.75
2024-03-02T05:32:32.286Z,98448.50
2024-03-02T05:35:00.114Z,98422.34
2024-03-02T05:37:27.942Z,98409.72
2024-03-02T05:39:55.871Z,98392.84
2024-03-02T05:42:23.724Z,98389.53
2024-03-02T05:44:51.537Z,98370.16
2024-03-02T05:47:19.806Z,98356.66
2024-03-02T05:49:48.972Z,98348.16
2024-03-02T05:52:16.786Z,98348.16
2024-03-02T05:54:44.623Z,98360.84
2024-03-02T05:57:33.019Z,98374.41
2024-03-02T06:00:01.051Z,98353.25
2024-03-02T06:02:27.900Z,98332.19
2024-03-02T06:04:58.358Z,98326.38
2024-03-02T06:07:26.162Z,98313.69
2024-03-02T06:09:54.453Z,98304.38
2024-03-02T06:12:22.333Z,98305.22
2024-03-02T06:14:50.138Z,98299.34
2024-03-02T06:17:17.964Z,98295.97
2024-03-02T06:19:45.752Z,98305.28
2024-03-02T06:22:14.898Z,98307.78
2024-03-02T06:24:43.288Z,98316.25
2024-03-02T06:27:11.145Z,98304.41
2024-03-02T06:29:38.960Z,98309.56
2024-03-02T06:32:07.225Z,98306.13
2024-03-02T06:34:35.043Z,98311.16
2024-03-02T06:37:03.521Z,98307.78
2024-03-02T06:39:35.137Z,98309.56
2024-03-02T06:42:03.032Z,98313.72
2024-03-02T06:44:30.848Z,98319.66
2024-03-02T06:46:58.646Z,98328.91
2024-03-02T06:49:26.478Z,98346.59
2024-03-02T06:51:54.470Z,98383.72
2024-03-02T06:54:22.357Z,98409.78
2024-03-02T06:56:51.568Z,98440.22
2024-03-02T06:59:19.394Z,98472.22
2024-03-02T07:01:47.250Z,98492.47
2024-03-02T07:04:15.075Z,98508.47
2024-03-02T07:06:42.900Z,98525.34
2024-03-02T07:09:12.066Z,98538.81
2024-03-02T07:11:39.954Z,98538.75
2024-03-02T07:14:09.153Z,98547.22
2024-03-02T07:16:39.527Z,98570.97
2024-03-02T07:19:07.843Z,98553.09
2024-03-02T07:21:35.837Z,98564.97
2024-03-02T07:24:04.045Z,98575.13
2024-03-02T07:29:03.707Z,98598.81
2024-03-02T07:31:32.883Z,98611.44
2024-03-02T07:34:00.700Z,98626.69
2024-03-02T07:36:28.598Z,98634.25
2024-03-02T07:38:56.465Z,98643.47
2024-03-02T07:41:24.305Z,98664.63
2024-03-02T07:43:52.137Z,98688.31
2024-03-02T07:46:19.956Z,98704.31
2024-03-02T07:48:49.165Z,98721.19
2024-03-02T07:51:17.985Z,98748.28
2024-03-02T07:53:47.272Z,98766.84
2024-03-02T07:56:22.578Z,98790.50
2024-03-02T07:58:50.900Z,98825.13
2024-03-02T08:01:19.374Z,98863.22
2024-03-02T08:03:51.167Z,98898.66
2024-03-02T08:06:21.748Z,98933.38
2024-03-02T08:08:49.768Z,98963.81
2024-03-02T08:11:17.661Z,98995.91
2024-03-02T08:13:45.497Z,99029.75
2024-03-02T08:16:13.312Z,99069.56
2024-03-02T08:18:41.525Z,99115.31
2024-03-02T08:21:10.819Z,99151.66
2024-03-02T08:23:41.353Z,99195.72
2024-03-02T08:26:10.010Z,99238.09
2024-03-02T08:28:38.713Z,99288.91
2024-03-02T08:31:06.536Z,99331.31
2024-03-02T08:33:34.820Z,99375.38
2024-03-02T08:36:05.682Z,99421.97
2024-03-02T08:38:35.521Z,99466.94
2024-03-02T08:41:04.681Z,99500.03
2024-03-02T08:43:32.821Z,99538.22
2024-03-02T08:46:00.953Z,99580.69
2024-03-02T08:48:28.828Z,99614.59
2024-03-02T08:50:56.710Z,99650.28
2024-03-02T08:53:24.558Z,99684.25
2024-03-02T08:55:53.907Z,99719.91
2024-03-02T08:58:22.183Z,99750.47
2024-03-02T09:00:50.376Z,99773.41
2024-03-02T09:03:18.848Z,99807.41
2024-03-02T09:05:47.287Z,99828.63
2024-03-02T09:08:15.113Z,99855.03
2024-03-02T09:10:42.922Z,99870.31
2024-03-02T09:13:12.628Z,99892.44
2024-03-02T09:15:41.019Z,99912.88
2024-03-02T09:18:09.117Z,99934.94
2024-03-02T09:20:37.198Z,99953.63
2024-03-02T09:23:05.379Z,99966.41
2024-03-02T09:25:33.169Z,99973.22
2024-03-02T09:28:01.091Z,99976.63
2024-03-02T09:30:30.585Z,99987.66
2024-03-02T09:35:29.172Z,100021.72
2024-03-02T09:37:58.030Z,100040.44
2024-03-02T09:40:26.328Z,100053.19
2024-03-02T09:42:54.763Z,100060.81
2024-03-02T09:45:25.674Z,100071.88
2024-03-02T09:47:54.934Z,100094.94
2024-03-02T09:50:23.435Z,100106.00
2024-03-02T09:52:51.799Z,100133.28
2024-03-02T09:55:20.648Z,100154.56
2024-03-02T09:57:49.673Z,100171.56
2024-03-02T10:00:18.844Z,100194.53
2024-03-02T10:02:50.104Z,100232.03
2024-03-02T10:05:28.428Z,100266.13
2024-03-02T10:08:03.937Z,100301.06
2024-03-02T10:10:41.211Z,100336.03
2024-03-02T10:13:10.878Z,100368.41
2024-03-02T10:15:41.720Z,100411.03
2024-03-02T10:18:12.640Z,100457.13
2024-03-02T10:20:42.760Z,100487.78
2024-03-02T10:23:14.307Z,100521.06
2024-03-02T10:25:51.224Z,100562.03
2024-03-02T10:28:23.188Z,100609.81
2024-03-02T10:30:52.918Z,100647.34
2024-03-02T10:33:21.109Z,100679.78
2024-03-02T10:35:52.134Z,100702.84
2024-03-02T10:38:20.151Z,100714.81
2024-03-02T10:40:49.646Z,100734.47
2024-03-02T10:43:18.033Z,100753.28
2024-03-02T10:45:49.497Z,100776.38
2024-03-02T10:48:17.853Z,100789.09
2024-03-02T10:50:45.818Z,100812.25
2024-03-02T10:53:15.216Z,100836.16
2024-03-02T10:55:43.190Z,100860.97
2024-03-02T10:58:14.738Z,100889.19
2024-03-02T11:00:44.835Z,100901.19
2024-03-02T11:03:14.328Z,100933.66
2024-03-02T11:05:46.152Z,100966.16
2024-03-02T11:08:18.794Z,101001.25
2024-03-02T11:10:53.318Z,101015.81
2024-03-02T11:13:25.369Z,101008.94
2024-03-02T11:15:57.749Z,101011.50
2024-03-02T11:18:26.270Z,101016.63
2024-03-02T11:20:55.800Z,101038.88
2024-03-02T11:23:34.777Z,101056.81
2024-03-02T11:26:20.366Z,101078.22
2024-03-02T11:28:49.857Z,101107.34
2024-03-02T11:31:17.688Z,101134.69
2024-03-02T11:33:45.653Z,101179.25
2024-03-02T11:36:13.576Z,101224.66
2024-03-02T11:38:46.581Z,101258.91
2024-03-02T11:41:15.565Z,101274.38
2024-03-02T11:43:45.381Z,101282.88
2024-03-02T11:46:14.357Z,101300.91
2024-03-02T11:48:42.560Z,101310.31
2024-03-02T11:51:10.543Z,101318.03
2024-03-02T11:53:44.004Z,101313.72
2024-03-02T11:56:12.969Z,101316.28
2024-03-02T11:58:42.517Z,101320.59
2024-03-02T12:01:10.763Z,101325.75
2024-03-02T12:03:38.759Z,101320.59
2024-03-02T12:06:08.152Z,101313.69
2024-03-02T12:08:36.765Z,101349.69
2024-03-02T12:11:07.659Z,101364.25
2024-03-02T12:13:35.683Z,101392.56
2024-03-02T12:16:03.737Z,101417.41
2024-03-02T12:18:31.622Z,101448.28
2024-03-02T12:20:59.697Z,101507.53
2024-03-02T12:23:28.009Z,101580.50
2024-03-02T12:25:56.122Z,101631.97
2024-03-02T12:28:25.748Z,101626.00
2024-03-02T12:30:53.861Z,101586.47
2024-03-02T12:33:22.319Z,101555.56
2024-03-02T12:35:51.411Z,101523.81
2024-03-02T12:38:20.623Z,101506.63
2024-03-02T12:40:50.196Z,101492.00
2024-03-02T12:43:18.000Z,101499.75
2024-03-02T12:45:47.503Z,101509.16
2024-03-02T12:48:15.833Z,101535.78
2024-03-02T12:50:45.286Z,101583.81
2024-03-02T12:53:17.424Z,101611.25
2024-03-02T12:55:46.048Z,101643.03
2024-03-02T12:58:19.216Z,101661.91
2024-03-02T13:00:48.595Z,101704.88
2024-03-02T13:03:19.241Z,101739.25
2024-03-02T13:05:50.822Z,101779.63
2024-03-02T13:08:18.829Z,101809.66
2024-03-02T13:10:46.876Z,101857.00
2024-03-02T13:13:15.954Z,101907.69
2024-03-02T13:15:44.308Z,101944.69
2024-03-02T13:18:13.715Z,101909.41
2024-03-02T13:20:42.395Z,101923.16
2024-03-02T13:23:11.323Z,101949.84
2024-03-02T13:25:39.161Z,101992.88
2024-03-02T13:28:08.301Z,102021.25
2024-03-02T13:30:36.305Z,102064.28
2024-03-02T13:33:04.236Z,102079.78
2024-03-02T13:35:33.441Z,102078.06
2024-03-02T13:38:01.252Z,102086.69
2024-03-02T13:40:30.210Z,102107.34
2024-03-02T13:42:58.122Z,102125.34
2024-03-02T13:45:26.193Z,102152.91
2024-03-02T13:47:56.660Z,102171.84
2024-03-02T13:50:24.459Z,102163.22
2024-03-02T13:52:53.605Z,102149.47
2024-03-02T13:55:21.242Z,102134.78
2024-03-02T13:57:49.941Z,102127.03
2024-03-02T14:00:20.021Z,102115.84
2024-03-02T14:02:50.626Z,102113.25
2024-03-02T14:05:18.853Z,102100.28
2024-03-02T14:07:46.692Z,102082.22
2024-03-02T14:10:17.005Z,102060.66
2024-03-02T14:12:44.964Z,102039.16
2024-03-02T14:15:13.135Z,102021.06
2024-03-02T14:17:41.041Z,102010.75
2024-03-02T14:20:11.497Z,102007.28
2024-03-02T14:22:39.406Z,101998.63
2024-03-02T14:25:07.968Z,101987.44
2024-03-02T14:27:51.069Z,101965.94
2024-03-02T14:30:25.600Z,101941.81
2024-03-02T14:32:53.508Z,101940.97
2024-03-02T14:35:23.688Z,101951.28
2024-03-02T14:37:51.671Z,101951.25
2024-03-02T14:40:19.573Z,101964.19
2024-03-02T14:42:49.525Z,101941.78
2024-03-02T14:45:17.507Z,101936.59
2024-03-02T14:47:45.672Z,101933.16
2024-03-02T14:50:13.956Z,101929.72
2024-03-02T14:52:43.696Z,101919.38
2024-03-02T14:55:13.046Z,101905.59
2024-03-02T14:57:40.950Z,101889.22
2024-03-02T15:00:12.807Z,101853.06
2024-03-02T15:02:40.810Z,101838.47
2024-03-02T15:05:09.734Z,101821.25
2024-03-02T15:07:37.553Z,101797.13
2024-03-02T15:10:06.472Z,101806.59
2024-03-02T15:12:34.415Z,101798.00
2024-03-02T15:15:02.356Z,101786.81
2024-03-02T15:17:32.089Z,101769.59
2024-03-02T15:19:59.954Z,101747.25
2024-03-02T15:22:27.757Z,101730.84
2024-03-02T15:24:55.691Z,101713.69
2024-03-02T15:27:23.622Z,101698.22
2024-03-02T15:29:53.243Z,101691.34
2024-03-02T15:32:21.103Z,101683.59
2024-03-02T15:34:50.439Z,101662.09
2024-03-02T15:37:18.507Z,101638.03
2024-03-02T15:39:46.356Z,101622.53
2024-03-02T15:42:14.241Z,101611.38
2024-03-02T15:44:44.101Z,101580.44
2024-03-02T15:47:13.074Z,101564.13
2024-03-02T15:49:40.923Z,101539.25
2024-03-02T15:52:10.577Z,101502.28
2024-03-02T15:54:38.493Z,101476.47
2024-03-02T15:57:06.686Z,101460.19
2024-03-02T15:59:34.733Z,101448.19
2024-03-02T16:02:02.582Z,101437.03
2024-03-02T16:04:30.416Z,101414.69
2024-03-02T16:06:58.233Z,101379.50
2024-03-02T16:09:27.586Z,101340.88
2024-03-02T16:11:55.455Z,101323.72
2024-03-02T16:14:23.325Z,101304.00
2024-03-02T16:16:51.160Z,101288.56
2024-03-02T16:19:29.033Z,101273.13
2024-03-02T16:22:00.719Z,101259.41
2024-03-02T16:24:30.155Z,101232.81
2024-03-02T16:26:58.000Z,101207.91
2024-03-02T16:29:25.841Z,101177.94
2024-03-02T16:31:53.705Z,101132.50
2024-03-02T16:34:21.701Z,101109.34
2024-03-02T16:36:49.554Z,101083.66
2024-03-02T16:39:17.399Z,101057.94
2024-03-02T16:41:48.022Z,101037.41
2024-03-02T16:44:16.129Z,100991.97
2024-03-02T16:46:45.959Z,100962.03
2024-03-02T16:49:13.916Z,100922.69
2024-03-02T16:51:41.918Z,100885.88
2024-03-02T16:54:09.851Z,100844.81
2024-03-02T16:56:41.615Z,100796.88
2024-03-02T16:59:11.069Z,100766.13
2024-03-02T17:01:39.439Z,100728.53
2024-03-02T17:04:08.263Z,100692.66
2024-03-02T17:06:36.523Z,100650.75
2024-03-02T17:09:04.673Z,100616.53
2024-03-02T17:11:32.987Z,100582.41
2024-03-02T17:14:01.015Z,100549.09
2024-03-02T17:16:30.331Z,100508.91
2024-03-02T17:18:58.175Z,100477.34
2024-03-02T17:21:26.292Z,100438.91
2024-03-02T17:23:54.346Z,100401.34
2024-03-02T17:26:22.138Z,100362.13
2024-03-02T17:28:49.973Z,100324.59
2024-03-02T17:31:17.874Z,100293.91
2024-03-02T17:33:47.130Z,100249.50
2024-03-02T17:36:15.482Z,100234.22
2024-03-02T17:38:43.631Z,100210.38
2024-03-02T17:41:11.702Z,100183.06
2024-03-02T17:43:40.379Z,100154.06
2024-03-02T17:46:08.482Z,100121.72
2024-03-02T17:48:36.445Z,100093.59
2024-03-02T17:51:08.445Z,100062.03
2024-03-02T17:53:36.257Z,100042.50
2024-03-02T17:56:04.479Z,100016.97
2024-03-02T17:58:33.546Z,99991.41
2024-03-02T18:01:01.623Z,99967.53
2024-03-02T18:03:29.758Z,99944.56
2024-03-02T18:05:57.741Z,99917.34
2024-03-02T18:08:27.002Z,99892.66
2024-03-02T18:10:54.875Z,99866.28
2024-03-02T18:13:22.688Z,99837.34
2024-03-02T18:15:51.787Z,99822.94
2024-03-02T18:18:19.902Z,99798.28
2024-03-02T18:20:47.734Z,99773.59
2024-03-02T18:23:15.586Z,99742.97
2024-03-02T18:25:48.188Z,99728.59
2024-03-02T18:28:16.060Z,99697.09
2024-03-02T18:30:44.179Z,99672.41
2024-03-02T18:33:12.146Z,99657.13
2024-03-02T18:35:40.000Z,99645.25
2024-03-02T18:38:07.863Z,99631.59
2024-03-02T18:40:35.711Z,99639.22
2024-03-02T18:43:05.568Z,99643.53
2024-03-02T18:45:33.662Z,99646.91
2024-03-02T18:48:04.002Z,99639.22
2024-03-02T18:50:33.952Z,99637.56
2024-03-02T18:53:01.814Z,99638.41
2024-03-02T18:55:29.640Z,99644.38
2024-03-02T18:57:58.288Z,99639.22
2024-03-02T19:00:27.845Z,99636.72
2024-03-02T19:02:55.752Z,99620.53
2024-03-02T19:05:23.590Z,99605.25
2024-03-02T19:07:51.416Z,99594.25
2024-03-02T19:10:19.298Z,99567.03
2024-03-02T19:12:48.673Z,99541.56
2024-03-02T19:15:17.071Z,99538.25
2024-03-02T19:17:46.492Z,99513.63
2024-03-02T19:20:15.337Z,99486.41
2024-03-02T19:22:43.202Z,99471.97
2024-03-02T19:25:12.485Z,99478.00
2024-03-02T19:27:40.700Z,99467.72
2024-03-02T19:30:10.015Z,99486.34
2024-03-02T19:32:37.991Z,99503.41
2024-03-02T19:35:08.570Z,99501.69
2024-03-02T19:37:37.140Z,99492.34
2024-03-02T19:40:07.024Z,99490.66
2024-03-02T19:42:35.889Z,99494.94
2024-03-02T19:45:06.159Z,99498.31
2024-03-02T19:47:34.469Z,99477.03
2024-03-02T19:50:02.371Z,99470.28
2024-03-02T19:52:31.651Z,99452.47
2024-03-02T19:54:59.488Z,99427.81
2024-03-02T19:57:29.574Z,99399.84
2024-03-02T19:59:57.491Z,99382.00
2024-03-02T20:02:28.016Z,99360.78
2024-03-02T20:04:56.009Z,99330.25
2024-03-02T20:07:23.814Z,99315.88
2024-03-02T20:09:54.314Z,99302.31
2024-03-02T20:12:22.315Z,99284.53
2024-03-02T20:14:50.303Z,99269.22
2024-03-02T20:17:18.191Z,99264.22
2024-03-02T20:19:46.269Z,99252.31
2024-03-02T20:22:14.755Z,99241.28
2024-03-02T20:24:43.775Z,99220.88
2024-03-02T20:27:13.631Z,99209.03
2024-03-02T20:29:41.500Z,99197.19
2024-03-02T20:32:09.404Z,99191.25
2024-03-02T20:34:37.245Z,99187.00
2024-03-02T20:37:05.451Z,99182.78
2024-03-02T20:39:33.388Z,99180.28
2024-03-02T20:42:01.683Z,99175.22
2024-03-02T20:44:30.907Z,99169.31
2024-03-02T20:46:58.786Z,99176.03
2024-03-02T20:49:27.193Z,99184.44
2024-03-02T20:51:55.094Z,99210.78
2024-03-02T20:54:22.927Z,99216.69
2024-03-02T20:56:52.844Z,99205.59
2024-03-02T20:59:20.707Z,99196.34
2024-03-02T21:01:50.626Z,99167.56
2024-03-02T21:04:18.627Z,99154.84
2024-03-02T21:06:46.762Z,99140.50
2024-03-02T21:09:14.699Z,99118.47
2024-03-02T21:11:45.282Z,99088.81
2024-03-02T21:14:13.279Z,99046.44
2024-03-02T21:16:41.620Z,99008.41
2024-03-02T21:19:12.823Z,98969.47
2024-03-02T21:21:43.502Z,98937.38
2024-03-02T21:24:11.456Z,98921.25
2024-03-02T21:26:40.294Z,98902.63
2024-03-02T21:29:08.119Z,98884.03
2024-03-02T21:31:36.174Z,98871.38
2024-03-02T21:34:05.069Z,98865.41
2024-03-02T21:36:34.880Z,98842.56
2024-03-02T21:39:05.414Z,98834.09
2024-03-02T21:41:33.769Z,98819.75
2024-03-02T21:44:01.689Z,98817.25
2024-03-02T21:46:29.504Z,98811.31
2024-03-02T21:48:57.350Z,98791.81
2024-03-02T21:51:25.423Z,98783.41
2024-03-02T21:53:55.582Z,98774.94
2024-03-02T21:56:23.397Z,98758.84
2024-03-02T21:58:52.011Z,98736.06
2024-03-02T22:01:20.142Z,98722.53
2024-03-02T22:03:48.134Z,98722.53
2024-03-02T22:06:16.608Z,98713.25
2024-03-02T22:08:44.419Z,98698.94
2024-03-02T22:11:13.894Z,98670.19
2024-03-02T22:13:41.848Z,98666.03
2024-03-02T22:16:09.962Z,98653.31
2024-03-02T22:18:38.080Z,98649.13
2024-03-02T22:21:06.238Z,98628.03
2024-03-02T22:23:34.086Z,98622.97
2024-03-02T22:26:02.092Z,98604.34
2024-03-02T22:28:31.302Z,98589.13
2024-03-02T22:30:59.188Z,98575.63
2024-03-02T22:33:27.087Z,98559.59
2024-03-02T22:35:54.962Z,98541.06
2024-03-02T22:38:22.824Z,98522.50
2024-03-02T22:40:50.683Z,98503.13
2024-03-02T22:43:18.617Z,98482.81
2024-03-02T22:45:48.414Z,98471.03
2024-03-02T22:48:16.389Z,98452.44
2024-03-02T22:50:44.443Z,98443.13
2024-03-02T22:53:12.385Z,98422.16
2024-03-02T22:55:40.310Z,98401.91
2024-03-02T22:58:08.817Z,98388.34
2024-03-02T23:00:38.254Z,98369.00
2024-03-02T23:06:35.914Z,98306.63
2024-03-02T23:09:04.666Z,98290.59
2024-03-02T23:11:32.775Z,98288.94
2024-03-02T23:14:00.649Z,98300.81
2024-03-02T23:16:30.064Z,98283.91
2024-03-02T23:18:58.099Z,98279.69
2024-03-02T23:21:26.008Z,98261.16
2024-03-02T23:23:55.211Z,98257.00
2024-03-02T23:26:23.835Z,98247.75
2024-03-02T23:28:51.656Z,98244.44
2024-03-02T23:31:19.670Z,98235.94
2024-03-02T23:33:49.295Z,98235.03
2024-03-02T23:36:17.356Z,98234.22
2024-03-02T23:38:45.192Z,98223.16
2024-03-02T23:41:15.924Z,98225.00
2024-03-02T23:43:43.828Z,98205.59
2024-03-02T23:46:12.347Z,98193.84
2024-03-02T23:48:40.630Z,98173.66
2024-03-02T23:51:08.758Z,98158.50
2024-03-02T23:53:36.637Z,98139.97
2024-03-02T23:56:12.383Z,98120.59
2024-03-02T23:58:40.896Z,98099.53
